Time;durP1;ratioP1;P1;durP2;ratioP2;P2;SDS_P1;SDS_P2;PMS_P1;PMS_P2;Temp;Humidity;BMP_temperature;BMP_pressure;BME280_temperature;BME280_humidity;BME280_pressure;Samples;Min_cycle;Max_cycle;Signal;HPM_P1;HPM_P2
2022/12/20 00:00:49;;;;;;;0.10;0.10;;;9.20;99.90;;;;;;5027719;28;20045;-66
2022/12/20 00:03:15;;;;;;;1.38;0.45;;;9.20;99.90;;;;;;5028554;28;20102;-66
2022/12/20 00:05:42;;;;;;;0.55;0.55;;;9.20;99.90;;;;;;5028348;28;20096;-66
2022/12/20 00:08:09;;;;;;;0.35;0.35;;;9.20;99.90;;;;;;5026329;28;20044;-66
2022/12/20 00:10:39;;;;;;;0.20;0.20;;;9.20;99.90;;;;;;5027712;28;20114;-66
2022/12/20 00:13:05;;;;;;;0.57;0.57;;;9.20;99.90;;;;;;5026841;28;20045;-66
2022/12/20 00:15:32;;;;;;;0.10;0.10;;;9.20;99.90;;;;;;5027152;28;20041;-67
2022/12/20 00:17:58;;;;;;;0.10;0.10;;;9.20;99.90;;;;;;5023854;28;20042;-67
2022/12/20 00:20:24;;;;;;;0.98;0.65;;;9.20;99.90;;;;;;5027753;28;20099;-66
2022/12/20 00:22:50;;;;;;;0.05;0.05;;;9.20;99.90;;;;;;5026904;28;20072;-67
2022/12/20 00:25:16;;;;;;;0.08;0.08;;;9.20;99.90;;;;;;5027614;28;20057;-67
2022/12/20 00:27:41;;;;;;;0.10;0.10;;;9.30;99.90;;;;;;5026450;28;20473;-66
2022/12/20 00:30:07;;;;;;;0.63;0.60;;;9.30;99.90;;;;;;5024821;28;20037;-66
2022/12/20 00:32:33;;;;;;;0.20;0.20;;;9.20;99.90;;;;;;5027539;28;20038;-67
2022/12/20 00:34:59;;;;;;;0.10;0.10;;;9.30;99.90;;;;;;5026549;28;20465;-66
2022/12/20 00:37:24;;;;;;;0.55;0.55;;;9.30;99.90;;;;;;5027083;28;20045;-66
2022/12/20 00:39:50;;;;;;;0.15;0.15;;;9.30;99.90;;;;;;5041367;28;20132;-66
2022/12/20 00:42:15;;;;;;;0.20;0.20;;;9.30;99.90;;;;;;5025962;28;20045;-66
2022/12/20 00:44:41;;;;;;;0.10;0.10;;;9.30;99.90;;;;;;5027411;28;20052;-66
2022/12/20 00:47:06;;;;;;;1.45;0.88;;;9.30;99.90;;;;;;5026755;28;20488;-66
2022/12/20 00:49:32;;;;;;;0.10;0.10;;;9.40;99.90;;;;;;5023470;28;20072;-66
2022/12/20 00:51:58;;;;;;;0.22;0.22;;;9.30;99.90;;;;;;5023813;28;20049;-66
2022/12/20 00:54:23;;;;;;;0.10;0.10;;;9.30;99.90;;;;;;5031026;28;20045;-67
2022/12/20 00:56:49;;;;;;;0.10;0.10;;;9.30;99.90;;;;;;5024927;28;20088;-66
2022/12/20 00:59:15;;;;;;;0.08;0.08;;;9.40;99.90;;;;;;5030060;28;20099;-66
2022/12/20 01:01:40;;;;;;;0.20;0.20;;;9.40;99.90;;;;;;5030390;28;20133;-66
2022/12/20 01:04:06;;;;;;;3.60;1.33;;;9.40;99.90;;;;;;5030259;28;20053;-67
2022/12/20 01:06:33;;;;;;;0.20;0.20;;;9.40;99.90;;;;;;5032263;28;20100;-66
2022/12/20 01:08:59;;;;;;;0.10;0.10;;;9.50;99.90;;;;;;5030995;28;21383;-66
2022/12/20 01:11:28;;;;;;;0.13;0.13;;;9.50;99.90;;;;;;5030889;28;20588;-66
2022/12/20 01:13:55;;;;;;;3.97;3.10;;;9.50;99.90;;;;;;5031380;28;20520;-66
2022/12/20 01:16:30;;;;;;;0.20;0.20;;;9.60;99.90;;;;;;5029790;28;20080;-66
2022/12/20 01:18:56;;;;;;;0.20;0.20;;;9.60;99.90;;;;;;5026811;28;20046;-67
2022/12/20 01:21:24;;;;;;;1.95;0.90;;;9.60;99.90;;;;;;5031227;28;20500;-67
2022/12/20 01:23:50;;;;;;;0.20;0.20;;;9.60;99.90;;;;;;5029855;28;20718;-67
2022/12/20 01:26:18;;;;;;;0.60;0.60;;;9.60;99.90;;;;;;5030708;28;20041;-67
2022/12/20 01:28:45;;;;;;;0.10;0.10;;;9.60;99.90;;;;;;5031060;28;20091;-67
2022/12/20 01:31:14;;;;;;;0.10;0.10;;;9.50;99.90;;;;;;5029126;28;20041;-67
2022/12/20 01:33:41;;;;;;;0.20;0.15;;;9.50;99.90;;;;;;5028569;28;20095;-67
2022/12/20 01:36:10;;;;;;;0.15;0.15;;;9.50;99.90;;;;;;5031019;28;20056;-67
2022/12/20 01:38:36;;;;;;;0.15;0.15;;;9.50;99.90;;;;;;5030636;28;20042;-67
2022/12/20 01:41:03;;;;;;;0.52;0.52;;;9.50;99.90;;;;;;5028056;28;20083;-67
2022/12/20 01:43:47;;;;;;;0.10;0.10;;;9.60;99.90;;;;;;5029624;28;20088;-66
2022/12/20 01:46:12;;;;;;;0.15;0.15;;;9.60;99.90;;;;;;5028591;28;20049;-66
2022/12/20 01:48:39;;;;;;;0.10;0.10;;;9.60;99.90;;;;;;5027629;28;20512;-66
2022/12/20 01:51:05;;;;;;;0.20;0.20;;;9.70;99.90;;;;;;5030092;28;20156;-67
2022/12/20 01:53:31;;;;;;;0.98;0.98;;;9.70;99.90;;;;;;5013062;28;20508;-66
2022/12/20 01:56:02;;;;;;;0.10;0.10;;;9.70;99.90;;;;;;5029732;28;20041;-67
2022/12/20 01:58:28;;;;;;;0.15;0.15;;;9.60;99.90;;;;;;5029207;28;20389;-67
2022/12/20 02:00:53;;;;;;;0.45;0.40;;;9.70;99.90;;;;;;5028968;28;20044;-67
2022/12/20 02:03:19;;;;;;;0.10;0.10;;;9.70;99.90;;;;;;5030699;28;20044;-67
2022/12/20 02:05:45;;;;;;;0.00;0.00;;;9.60;99.90;;;;;;5027841;28;20576;-67
2022/12/20 02:08:14;;;;;;;0.13;0.13;;;9.60;99.90;;;;;;5030901;28;20081;-66
2022/12/20 02:11:01;;;;;;;0.63;0.63;;;9.50;99.90;;;;;;5027778;28;20052;-67
2022/12/20 02:13:44;;;;;;;0.10;0.10;;;9.50;99.90;;;;;;5021581;28;20049;-67
2022/12/20 02:16:13;;;;;;;0.10;0.10;;;9.50;99.90;;;;;;5012284;28;20125;-67
2022/12/20 02:18:53;;;;;;;0.20;0.20;;;9.50;99.90;;;;;;5010378;28;20050;-67
2022/12/20 02:21:38;;;;;;;0.10;0.10;;;9.50;99.90;;;;;;5029602;28;20442;-67
2022/12/20 02:24:40;;;;;;;0.57;0.38;;;9.40;99.90;;;;;;5029241;28;20528;-67
2022/12/20 02:27:30;;;;;;;0.10;0.10;;;9.40;99.90;;;;;;5027620;28;20041;-67
2022/12/20 02:30:18;;;;;;;0.00;0.00;;;9.40;99.90;;;;;;5027946;28;20049;-67
2022/12/20 02:33:04;;;;;;;0.10;0.10;;;9.40;99.90;;;;;;5025121;28;20045;-67
2022/12/20 02:35:33;;;;;;;0.82;0.82;;;9.40;99.90;;;;;;5010510;28;20049;-67
2022/12/20 02:38:02;;;;;;;0.30;0.30;;;9.30;99.90;;;;;;5029856;28;20049;-67
2022/12/20 02:40:36;;;;;;;0.38;0.38;;;9.30;99.90;;;;;;5027862;28;20493;-67
2022/12/20 02:45:14;;;;;;;4.60;1.08;;;9.20;99.90;;;;;;5008474;28;20507;-67
2022/12/20 02:45:52;;;;;;;3.00;0.90;;;9.20;99.90;;;;;;5003489;28;20523;-67
2022/12/20 02:48:18;;;;;;;0.10;0.10;;;9.10;99.90;;;;;;5028405;28;20150;-67
2022/12/20 02:50:48;;;;;;;0.05;0.05;;;9.10;99.90;;;;;;5027183;28;20041;-66
2022/12/20 02:53:15;;;;;;;0.15;0.15;;;9.10;99.90;;;;;;5028447;28;20103;-67
2022/12/20 02:56:05;;;;;;;0.10;0.10;;;9.10;99.90;;;;;;5027763;28;20057;-67
2022/12/20 02:58:41;;;;;;;0.70;0.70;;;9.10;99.90;;;;;;5019400;28;20556;-67
2022/12/20 03:01:13;;;;;;;0.00;0.00;;;9.10;99.90;;;;;;5028667;28;20052;-67
2022/12/20 03:03:39;;;;;;;0.10;0.10;;;9.10;99.90;;;;;;5025339;28;20038;-67
2022/12/20 03:06:05;;;;;;;0.10;0.10;;;9.10;99.90;;;;;;5028349;28;20050;-67
2022/12/20 03:08:31;;;;;;;0.38;0.38;;;9.10;99.90;;;;;;5029300;28;20050;-67
2022/12/20 03:10:57;;;;;;;0.28;0.28;;;9.10;99.90;;;;;;5027106;28;20393;-67
2022/12/20 03:13:24;;;;;;;0.32;0.32;;;9.10;99.90;;;;;;5029265;28;20045;-68
2022/12/20 03:15:49;;;;;;;0.10;0.10;;;9.10;99.90;;;;;;5027440;28;20056;-67
2022/12/20 03:18:15;;;;;;;0.10;0.10;;;9.10;99.90;;;;;;5021056;28;20041;-67
2022/12/20 03:20:41;;;;;;;0.10;0.10;;;9.10;99.90;;;;;;5017015;28;20053;-67
2022/12/20 03:23:06;;;;;;;0.20;0.20;;;9.10;99.90;;;;;;5023184;28;20054;-68
2022/12/20 03:25:32;;;;;;;0.13;0.13;;;9.10;99.90;;;;;;5028039;28;20038;-67
2022/12/20 03:27:58;;;;;;;0.95;0.57;;;9.10;99.90;;;;;;5015168;28;20093;-67
2022/12/20 03:30:23;;;;;;;0.32;0.32;;;9.20;99.90;;;;;;5028223;28;20049;-67
2022/12/20 03:32:49;;;;;;;0.10;0.10;;;9.20;99.90;;;;;;5028536;28;20044;-67
2022/12/20 03:35:15;;;;;;;0.10;0.10;;;9.30;99.90;;;;;;5027773;28;20064;-67
2022/12/20 03:37:41;;;;;;;0.10;0.10;;;9.20;99.90;;;;;;5013488;28;20056;-67
2022/12/20 03:40:07;;;;;;;0.20;0.20;;;9.30;99.90;;;;;;5033500;28;20128;-67
2022/12/20 03:42:33;;;;;;;0.10;0.10;;;9.20;99.90;;;;;;5025095;28;20124;-67
2022/12/20 03:44:58;;;;;;;0.10;0.10;;;9.20;99.90;;;;;;5021082;28;20156;-67
2022/12/20 03:47:24;;;;;;;0.10;0.10;;;9.30;99.90;;;;;;5028773;28;20053;-68
2022/12/20 03:49:50;;;;;;;0.40;0.40;;;9.20;99.90;;;;;;5017807;28;20054;-67
2022/12/20 03:52:16;;;;;;;0.10;0.10;;;9.30;99.90;;;;;;5027031;28;20049;-68
2022/12/20 03:54:42;;;;;;;0.38;0.38;;;9.30;99.90;;;;;;5028927;28;20403;-67
2022/12/20 03:57:08;;;;;;;0.25;0.25;;;9.30;99.90;;;;;;5028173;28;20037;-67
2022/12/20 03:59:34;;;;;;;0.10;0.10;;;9.30;99.90;;;;;;5028238;28;20091;-67
2022/12/20 04:02:01;;;;;;;0.10;0.10;;;9.40;99.90;;;;;;5027017;28;20099;-67
2022/12/20 04:04:26;;;;;;;0.10;0.10;;;9.30;99.90;;;;;;5026915;28;20048;-67
2022/12/20 04:06:52;;;;;;;0.10;0.10;;;9.30;99.90;;;;;;5027939;28;20045;-67
2022/12/20 04:09:18;;;;;;;1.60;1.50;;;9.30;99.90;;;;;;5027889;28;20476;-67
2022/12/20 04:11:43;;;;;;;0.20;0.20;;;9.40;99.90;;;;;;5027836;28;20124;-67
2022/12/20 04:14:09;;;;;;;0.10;0.10;;;9.40;99.90;;;;;;5026727;28;20473;-67
2022/12/20 04:16:34;;;;;;;0.10;0.10;;;9.40;99.90;;;;;;5027021;28;20069;-67
2022/12/20 04:19:00;;;;;;;0.55;0.55;;;9.40;99.90;;;;;;5027513;28;20096;-67
2022/12/20 04:21:31;;;;;;;0.10;0.10;;;9.30;99.90;;;;;;5026184;28;20041;-68
2022/12/20 04:23:58;;;;;;;0.10;0.10;;;9.40;99.90;;;;;;5028008;28;20042;-67
2022/12/20 04:26:24;;;;;;;0.20;0.20;;;9.40;99.90;;;;;;5026683;28;20088;-67
2022/12/20 04:28:49;;;;;;;0.05;0.05;;;9.40;99.90;;;;;;5031326;28;20508;-66
2022/12/20 04:31:15;;;;;;;0.10;0.10;;;9.40;99.90;;;;;;5031225;28;20477;-67
2022/12/20 04:33:41;;;;;;;0.38;0.38;;;9.40;99.90;;;;;;5030714;28;20076;-67
2022/12/20 04:36:07;;;;;;;0.10;0.10;;;9.40;99.90;;;;;;5030890;28;20463;-67
2022/12/20 04:38:32;;;;;;;0.10;0.10;;;9.50;99.90;;;;;;5031093;28;20056;-67
2022/12/20 04:40:58;;;;;;;0.10;0.10;;;9.50;99.90;;;;;;5031595;28;20048;-67
2022/12/20 04:43:25;;;;;;;0.35;0.35;;;9.50;99.90;;;;;;5026866;28;20041;-67
2022/12/20 04:45:52;;;;;;;0.10;0.10;;;9.50;99.90;;;;;;5023340;28;20444;-67
2022/12/20 04:48:19;;;;;;;0.10;0.10;;;9.50;99.90;;;;;;5028072;28;20081;-67
2022/12/20 04:50:48;;;;;;;0.57;0.57;;;9.50;99.90;;;;;;5029920;28;20149;-67
2022/12/20 04:55:59;;;;;;;3.20;0.90;;;9.50;99.90;;;;;;5028790;28;20107;-67
2022/12/20 04:58:24;;;;;;;0.10;0.10;;;9.50;99.90;;;;;;5029352;28;20050;-67
2022/12/20 05:00:53;;;;;;;0.15;0.15;;;9.50;99.90;;;;;;5031682;28;20137;-67
2022/12/20 05:03:21;;;;;;;0.40;0.40;;;9.50;99.90;;;;;;5028173;28;20041;-67
2022/12/20 05:05:47;;;;;;;0.17;0.17;;;9.50;99.90;;;;;;5026336;28;20489;-67
2022/12/20 05:08:13;;;;;;;1.35;1.00;;;9.50;99.90;;;;;;5027611;28;20141;-67
2022/12/20 05:10:39;;;;;;;0.20;0.20;;;9.50;99.90;;;;;;5025478;28;20129;-67
2022/12/20 05:13:04;;;;;;;0.10;0.10;;;9.60;99.90;;;;;;5029123;28;20137;-67
2022/12/20 05:15:30;;;;;;;0.17;0.17;;;9.60;99.90;;;;;;5027273;28;20056;-67
2022/12/20 05:17:59;;;;;;;0.30;0.30;;;9.60;99.90;;;;;;5031014;28;20046;-68
2022/12/20 05:20:31;;;;;;;0.70;0.70;;;9.50;99.90;;;;;;5030742;28;20103;-68
2022/12/20 05:28:31;;;;;;;0.10;0.10;;;9.60;99.90;;;;;;5029967;28;20053;-67
2022/12/20 05:30:57;;;;;;;0.08;0.08;;;9.60;99.90;;;;;;5027401;28;20045;-67
2022/12/20 05:33:23;;;;;;;0.30;0.30;;;9.60;99.90;;;;;;5031128;28;20160;-67
2022/12/20 05:35:48;;;;;;;0.10;0.10;;;9.60;99.90;;;;;;5025286;28;20084;-67
2022/12/20 05:38:14;;;;;;;0.40;0.40;;;9.60;99.90;;;;;;5026402;28;20053;-67
2022/12/20 05:40:40;;;;;;;0.32;0.32;;;9.60;99.90;;;;;;5030007;28;20084;-67
2022/12/20 05:43:07;;;;;;;0.22;0.22;;;9.60;99.90;;;;;;5029782;28;20148;-67
2022/12/20 05:45:33;;;;;;;0.20;0.20;;;9.70;99.90;;;;;;5028900;28;20545;-67
2022/12/20 05:47:58;;;;;;;0.17;0.17;;;9.60;99.90;;;;;;5029172;28;20045;-66
2022/12/20 05:50:25;;;;;;;0.30;0.30;;;9.60;99.90;;;;;;5022358;28;20124;-67
2022/12/20 05:52:51;;;;;;;1.70;1.10;;;9.70;99.90;;;;;;5020942;28;20148;-67
2022/12/20 05:55:16;;;;;;;0.10;0.10;;;9.70;99.90;;;;;;5029332;28;20049;-67
2022/12/20 05:57:42;;;;;;;0.17;0.17;;;9.80;99.90;;;;;;5029903;28;20577;-66
2022/12/20 06:00:09;;;;;;;0.08;0.08;;;9.80;99.90;;;;;;5028483;28;20374;-67
2022/12/20 06:02:34;;;;;;;0.45;0.45;;;9.80;99.90;;;;;;5027792;28;20038;-67
2022/12/20 06:05:01;;;;;;;0.70;0.70;;;9.80;99.90;;;;;;5029221;28;20103;-67
2022/12/20 06:07:27;;;;;;;0.13;0.13;;;9.80;99.90;;;;;;5030494;28;20120;-67
2022/12/20 06:09:54;;;;;;;0.10;0.10;;;9.80;99.90;;;;;;5025176;28;20053;-67
2022/12/20 06:12:20;;;;;;;0.20;0.20;;;9.90;99.90;;;;;;5004254;28;20589;-67
2022/12/20 06:14:45;;;;;;;0.10;0.10;;;9.90;99.90;;;;;;5011397;28;20112;-67
2022/12/20 06:17:11;;;;;;;0.10;0.10;;;10.00;99.90;;;;;;5029556;28;20467;-67
2022/12/20 06:19:40;;;;;;;1.70;1.60;;;10.00;99.90;;;;;;5010878;28;20080;-67
2022/12/20 06:22:07;;;;;;;0.25;0.25;;;10.00;99.90;;;;;;5023524;28;20132;-67
2022/12/20 06:24:35;;;;;;;0.10;0.10;;;10.10;99.90;;;;;;5010929;28;20041;-67
2022/12/20 06:27:02;;;;;;;1.17;1.08;;;10.10;99.90;;;;;;5029069;28;20045;-67
2022/12/20 06:29:28;;;;;;;0.10;0.10;;;10.10;99.90;;;;;;5012629;28;20561;-67
2022/12/20 06:31:54;;;;;;;0.10;0.10;;;10.10;99.90;;;;;;5010553;28;20378;-67
2022/12/20 06:34:20;;;;;;;0.22;0.22;;;10.00;99.90;;;;;;5028760;28;20116;-67
2022/12/20 06:36:46;;;;;;;0.10;0.10;;;10.00;99.90;;;;;;5029047;28;20140;-67
2022/12/20 06:39:12;;;;;;;0.00;0.00;;;10.00;99.90;;;;;;5029500;28;20038;-67
2022/12/20 06:41:39;;;;;;;0.30;0.30;;;9.90;99.90;;;;;;5025594;28;20132;-67
2022/12/20 06:44:05;;;;;;;0.10;0.10;;;9.90;99.90;;;;;;5029136;28;20045;-67
2022/12/20 06:46:31;;;;;;;0.13;0.13;;;9.90;99.90;;;;;;5027864;28;20080;-67
2022/12/20 06:48:56;;;;;;;0.10;0.10;;;9.90;99.90;;;;;;5027996;28;20478;-66
2022/12/20 06:51:22;;;;;;;0.50;0.50;;;9.80;99.90;;;;;;5027871;28;20071;-66
2022/12/20 06:53:48;;;;;;;0.15;0.15;;;9.90;99.90;;;;;;5028020;28;20053;-66
2022/12/20 06:56:13;;;;;;;0.30;0.30;;;9.80;99.90;;;;;;5028134;28;20050;-67
2022/12/20 06:58:39;;;;;;;0.13;0.13;;;9.80;99.90;;;;;;5029849;28;20049;-66
2022/12/20 07:01:05;;;;;;;0.28;0.28;;;9.80;99.90;;;;;;5026400;28;21046;-66
2022/12/20 07:03:31;;;;;;;0.10;0.10;;;9.80;99.90;;;;;;5029179;28;20048;-67
2022/12/20 07:05:56;;;;;;;0.10;0.10;;;9.80;99.90;;;;;;5029108;28;20460;-67
2022/12/20 07:08:23;;;;;;;0.10;0.10;;;9.80;99.90;;;;;;5010096;28;20050;-67
2022/12/20 07:10:51;;;;;;;0.38;0.38;;;9.80;99.90;;;;;;5028398;28;20037;-67
2022/12/20 07:13:17;;;;;;;1.55;1.45;;;9.80;99.90;;;;;;5028818;28;20053;-67
2022/12/20 07:15:43;;;;;;;0.47;0.40;;;9.90;99.90;;;;;;5027090;28;20159;-67
2022/12/20 07:18:09;;;;;;;0.40;0.40;;;9.90;99.90;;;;;;5026990;28;20072;-67
2022/12/20 07:20:35;;;;;;;0.00;0.00;;;9.90;99.90;;;;;;5028226;28;20057;-67
2022/12/20 07:23:01;;;;;;;0.20;0.20;;;9.90;99.90;;;;;;5025166;28;20037;-67
2022/12/20 07:25:27;;;;;;;0.17;0.17;;;9.90;99.90;;;;;;5028139;28;20068;-67
2022/12/20 07:27:52;;;;;;;0.10;0.10;;;9.90;99.90;;;;;;5023537;28;20045;-67
2022/12/20 07:30:19;;;;;;;0.40;0.40;;;9.90;99.90;;;;;;5028048;28;20041;-66
2022/12/20 07:32:45;;;;;;;0.10;0.10;;;9.90;99.90;;;;;;5026863;28;20050;-67
2022/12/20 07:35:11;;;;;;;0.25;0.25;;;9.90;99.90;;;;;;5023062;28;20046;-67
2022/12/20 07:37:37;;;;;;;0.10;0.10;;;10.00;99.90;;;;;;5026800;28;20048;-67
2022/12/20 07:40:04;;;;;;;0.10;0.10;;;10.00;99.90;;;;;;5027310;28;20037;-66
2022/12/20 07:42:30;;;;;;;0.00;0.00;;;9.90;99.90;;;;;;5025214;28;20687;-67
2022/12/20 07:44:55;;;;;;;0.00;0.00;;;9.90;99.90;;;;;;5026142;28;20049;-66
2022/12/20 07:47:21;;;;;;;0.15;0.15;;;9.90;99.90;;;;;;5026778;28;20060;-66
2022/12/20 07:49:48;;;;;;;0.10;0.10;;;9.90;99.90;;;;;;5026674;28;20049;-66
2022/12/20 07:52:16;;;;;;;1.42;0.68;;;9.90;99.90;;;;;;5026989;28;20053;-66
2022/12/20 07:54:48;;;;;;;0.10;0.10;;;9.90;99.90;;;;;;5027085;28;20046;-66
2022/12/20 07:57:46;;;;;;;1.48;1.15;;;9.90;99.90;;;;;;5028172;28;20470;-66
2022/12/20 08:00:13;;;;;;;0.10;0.10;;;10.00;99.90;;;;;;5027489;28;20061;-66
2022/12/20 08:02:45;;;;;;;0.32;0.32;;;10.00;99.90;;;;;;5026769;28;20140;-66
2022/12/20 08:05:11;;;;;;;0.10;0.10;;;10.00;99.90;;;;;;5022540;28;20045;-65
2022/12/20 08:07:40;;;;;;;0.10;0.10;;;9.90;99.90;;;;;;5025654;28;20139;-66
2022/12/20 08:10:08;;;;;;;0.10;0.10;;;10.00;99.90;;;;;;5019330;28;20068;-66
2022/12/20 08:12:34;;;;;;;0.05;0.05;;;10.00;99.90;;;;;;5024771;28;20041;-65
2022/12/20 08:14:59;;;;;;;0.50;0.50;;;10.00;99.90;;;;;;5027389;28;20500;-66
2022/12/20 08:17:25;;;;;;;1.70;1.15;;;10.00;99.90;;;;;;5024403;28;20049;-66
2022/12/20 08:19:51;;;;;;;2.30;1.13;;;10.10;99.90;;;;;;5024900;28;20077;-66
2022/12/20 08:22:18;;;;;;;0.35;0.35;;;10.00;99.90;;;;;;5021621;28;20044;-66
2022/12/20 08:24:44;;;;;;;0.30;0.30;;;10.10;99.90;;;;;;5025925;28;20477;-66
2022/12/20 08:27:10;;;;;;;0.10;0.10;;;10.10;99.90;;;;;;5016183;28;20049;-66
2022/12/20 08:29:35;;;;;;;0.10;0.10;;;10.10;99.90;;;;;;5024849;28;20048;-66
2022/12/20 08:32:01;;;;;;;0.10;0.10;;;10.10;99.90;;;;;;5023840;28;20033;-66
2022/12/20 08:34:27;;;;;;;0.20;0.20;;;10.20;99.90;;;;;;5024587;28;20115;-66
2022/12/20 08:36:52;;;;;;;0.82;0.82;;;10.20;99.90;;;;;;5027488;28;20128;-66
2022/12/20 08:39:18;;;;;;;0.10;0.10;;;10.10;99.90;;;;;;5025955;28;20068;-66
2022/12/20 08:41:43;;;;;;;0.10;0.10;;;10.20;99.90;;;;;;5025197;28;20061;-66
2022/12/20 08:44:09;;;;;;;0.10;0.10;;;10.20;99.90;;;;;;5026946;28;20122;-66
2022/12/20 08:46:36;;;;;;;0.10;0.10;;;10.30;99.90;;;;;;5026693;28;20060;-66
2022/12/20 08:49:02;;;;;;;0.20;0.20;;;10.20;99.90;;;;;;5023961;28;20183;-66
2022/12/20 08:51:28;;;;;;;1.88;1.38;;;10.20;99.90;;;;;;5023130;28;20489;-66
2022/12/20 08:53:54;;;;;;;0.10;0.10;;;10.30;99.90;;;;;;5021880;28;20040;-66
2022/12/20 08:56:20;;;;;;;0.10;0.10;;;10.30;99.90;;;;;;5024118;28;20041;-66
2022/12/20 08:58:46;;;;;;;0.17;0.17;;;10.30;99.90;;;;;;5023521;28;20053;-66
2022/12/20 09:01:15;;;;;;;0.22;0.22;;;10.30;99.90;;;;;;5026576;28;20469;-66
2022/12/20 09:03:42;;;;;;;0.20;0.20;;;10.30;99.90;;;;;;5026669;28;20053;-66
2022/12/20 09:06:14;;;;;;;0.10;0.10;;;10.30;99.90;;;;;;5026744;28;20069;-66
2022/12/20 09:08:40;;;;;;;1.33;0.80;;;10.30;99.90;;;;;;5026250;28;20045;-66
2022/12/20 09:11:09;;;;;;;0.85;0.85;;;10.30;99.90;;;;;;5022673;28;20107;-66
2022/12/20 09:13:35;;;;;;;0.10;0.10;;;10.30;99.90;;;;;;5028613;28;20068;-66
2022/12/20 09:16:03;;;;;;;0.38;0.38;;;10.30;99.90;;;;;;5030504;28;20482;-66
2022/12/20 09:18:30;;;;;;;0.05;0.05;;;10.40;99.90;;;;;;5026933;28;20045;-67
2022/12/20 09:21:00;;;;;;;0.20;0.20;;;10.40;99.90;;;;;;5028560;28;20041;-66
2022/12/20 09:23:26;;;;;;;0.63;0.63;;;10.40;99.90;;;;;;5025843;28;20132;-66
2022/12/20 09:25:51;;;;;;;0.85;0.32;;;10.40;99.90;;;;;;5027658;28;20046;-66
2022/12/20 09:28:17;;;;;;;0.28;0.28;;;10.40;99.90;;;;;;5031583;28;20678;-66
2022/12/20 09:30:43;;;;;;;0.15;0.15;;;10.50;99.90;;;;;;5028910;28;20072;-66
2022/12/20 09:33:09;;;;;;;0.10;0.10;;;10.50;99.90;;;;;;5031466;28;20056;-66
2022/12/20 09:35:35;;;;;;;0.60;0.55;;;10.50;99.90;;;;;;5024398;28;20049;-66
2022/12/20 09:38:00;;;;;;;0.10;0.10;;;10.50;99.90;;;;;;5025916;28;20068;-66
2022/12/20 09:40:29;;;;;;;1.33;0.57;;;10.60;99.90;;;;;;5028959;28;20050;-66
2022/12/20 09:42:55;;;;;;;0.32;0.32;;;10.60;99.90;;;;;;5030466;28;20096;-66
2022/12/20 09:45:28;;;;;;;0.10;0.10;;;10.60;99.90;;;;;;5030568;28;21034;-66
2022/12/20 09:47:54;;;;;;;0.17;0.17;;;10.60;99.90;;;;;;5028330;28;20053;-65
2022/12/20 09:50:36;;;;;;;0.10;0.10;;;10.70;99.90;;;;;;5024744;28;20498;-66
2022/12/20 09:53:13;;;;;;;0.10;0.10;;;10.60;99.90;;;;;;5027533;28;20509;-66
2022/12/20 09:55:53;;;;;;;0.10;0.10;;;10.60;99.90;;;;;;5019942;28;20073;-66
2022/12/20 09:58:56;;;;;;;0.10;0.10;;;10.60;99.90;;;;;;5030569;28;20088;-66
2022/12/20 10:01:23;;;;;;;0.10;0.10;;;10.60;99.90;;;;;;5030237;28;20045;-65
2022/12/20 10:03:50;;;;;;;0.00;0.00;;;10.60;99.90;;;;;;5027659;28;20063;-66
2022/12/20 10:06:20;;;;;;;0.05;0.05;;;10.50;99.90;;;;;;5030680;28;20455;-66
2022/12/20 10:08:56;;;;;;;0.00;0.00;;;10.50;99.90;;;;;;5029406;28;20037;-66
2022/12/20 10:12:04;;;;;;;0.10;0.10;;;10.50;99.90;;;;;;5030223;28;20053;-66
2022/12/20 10:15:02;;;;;;;0.10;0.10;;;10.50;99.90;;;;;;4994840;28;20054;-66
2022/12/20 10:17:58;;;;;;;0.10;0.10;;;10.40;99.90;;;;;;5029812;28;20042;-66
2022/12/20 10:20:27;;;;;;;0.38;0.38;;;10.40;99.90;;;;;;5026394;28;20052;-66
2022/12/20 10:23:22;;;;;;;0.00;0.00;;;10.40;99.90;;;;;;5029449;28;20107;-66
2022/12/20 10:25:57;;;;;;;1.75;1.05;;;10.40;99.90;;;;;;5027039;28;20046;-66
2022/12/20 10:28:28;;;;;;;0.10;0.10;;;10.40;99.90;;;;;;5030698;28;20046;-66
2022/12/20 10:30:53;;;;;;;0.10;0.10;;;10.40;99.90;;;;;;5030227;28;20080;-66
2022/12/20 10:33:23;;;;;;;2.95;1.13;;;10.40;99.90;;;;;;5028984;28;20513;-66
2022/12/20 10:35:49;;;;;;;0.20;0.20;;;10.40;99.90;;;;;;5029227;28;20033;-66
2022/12/20 10:38:19;;;;;;;0.10;0.10;;;10.40;99.90;;;;;;5028409;28;20041;-66
2022/12/20 10:41:00;;;;;;;0.05;0.05;;;10.40;99.90;;;;;;5028692;28;20053;-66
2022/12/20 10:43:27;;;;;;;0.20;0.20;;;10.30;99.90;;;;;;5027013;28;20049;-64
2022/12/20 10:46:02;;;;;;;0.10;0.10;;;10.40;99.90;;;;;;5018771;28;20065;-65
2022/12/20 10:48:38;;;;;;;0.10;0.10;;;10.40;99.90;;;;;;5010800;28;20038;-65
2022/12/20 10:51:09;;;;;;;0.68;0.68;;;10.40;99.90;;;;;;4987422;28;20062;-64
2022/12/20 10:53:48;;;;;;;0.00;0.00;;;10.40;99.90;;;;;;4983114;28;20050;-65
2022/12/20 10:56:28;;;;;;;0.10;0.10;;;10.40;99.90;;;;;;5009855;28;20050;-64
2022/12/20 10:58:57;;;;;;;0.10;0.10;;;10.40;99.90;;;;;;5006392;28;20522;-64
2022/12/20 11:01:30;;;;;;;0.55;0.55;;;10.50;99.90;;;;;;5003108;28;20042;-64
2022/12/20 11:04:04;;;;;;;0.10;0.10;;;10.50;99.90;;;;;;5004318;28;20045;-64
2022/12/20 11:06:36;;;;;;;0.10;0.10;;;10.40;99.90;;;;;;4988993;28;20045;-64
2022/12/20 11:09:22;;;;;;;0.13;0.13;;;10.40;99.90;;;;;;5007362;28;20076;-65
2022/12/20 11:12:15;;;;;;;0.30;0.30;;;10.40;99.90;;;;;;5008374;28;20077;-65
2022/12/20 11:14:43;;;;;;;0.10;0.10;;;10.40;99.90;;;;;;5007370;28;20046;-65
2022/12/20 11:17:34;;;;;;;0.00;0.00;;;10.30;99.90;;;;;;5007925;28;20038;-65
2022/12/20 11:20:26;;;;;;;0.10;0.10;;;10.30;99.90;;;;;;5003873;28;20048;-66
2022/12/20 11:23:18;;;;;;;0.10;0.10;;;10.30;99.90;;;;;;5005368;28;20104;-66
2022/12/20 11:25:59;;;;;;;0.65;0.65;;;10.30;99.90;;;;;;5008957;28;20046;-67
2022/12/20 11:28:43;;;;;;;0.22;0.22;;;10.30;99.90;;;;;;5008250;28;20042;-66
2022/12/20 11:31:23;;;;;;;0.30;0.30;;;10.30;99.90;;;;;;5007298;28;20180;-66
2022/12/20 11:34:02;;;;;;;0.32;0.32;;;10.30;99.90;;;;;;5006233;28;20111;-66
2022/12/20 11:36:48;;;;;;;0.10;0.10;;;10.30;99.90;;;;;;5007327;28;20061;-66
2022/12/20 11:39:33;;;;;;;1.38;1.27;;;10.30;99.90;;;;;;4973601;28;20073;-66
2022/12/20 11:42:17;;;;;;;0.10;0.10;;;10.30;99.90;;;;;;5006580;28;20577;-66
2022/12/20 11:44:49;;;;;;;0.05;0.05;;;10.30;99.90;;;;;;5007584;28;20125;-66
2022/12/20 11:47:41;;;;;;;0.50;0.50;;;10.30;99.90;;;;;;4996060;28;20691;-66
2022/12/20 11:50:35;;;;;;;0.10;0.10;;;10.30;99.90;;;;;;5004883;28;20057;-66
2022/12/20 11:53:13;;;;;;;0.28;0.28;;;10.30;99.90;;;;;;5001649;28;20061;-66
2022/12/20 11:55:46;;;;;;;2.85;2.22;;;10.30;99.90;;;;;;5006955;28;20402;-66
2022/12/20 11:58:56;;;;;;;0.10;0.10;;;10.30;99.90;;;;;;5005705;28;20041;-67
2022/12/20 12:01:41;;;;;;;0.00;0.00;;;10.20;99.90;;;;;;5007282;28;20124;-67
2022/12/20 12:04:30;;;;;;;0.10;0.10;;;10.20;99.90;;;;;;4984922;28;20058;-67
2022/12/20 12:06:58;;;;;;;0.10;0.10;;;10.20;99.90;;;;;;5005446;28;20045;-67
2022/12/20 12:09:47;;;;;;;0.20;0.20;;;10.30;99.90;;;;;;5005521;28;20406;-67
2022/12/20 12:12:27;;;;;;;0.10;0.10;;;10.30;99.90;;;;;;4991641;28;20053;-67
2022/12/20 12:15:15;;;;;;;0.10;0.10;;;10.30;99.90;;;;;;5007672;28;20053;-67
2022/12/20 12:18:02;;;;;;;0.40;0.40;;;10.30;99.90;;;;;;4998167;28;20057;-67
2022/12/20 12:20:58;;;;;;;1.45;1.35;;;10.30;99.90;;;;;;5007172;28;20042;-67
2022/12/20 12:23:35;;;;;;;0.20;0.20;;;10.30;99.90;;;;;;5004624;28;20107;-67
2022/12/20 12:26:05;;;;;;;0.32;0.32;;;10.30;99.90;;;;;;5006944;28;20120;-67
2022/12/20 12:28:32;;;;;;;0.10;0.10;;;10.30;99.90;;;;;;5005193;28;20042;-67
2022/12/20 12:31:07;;;;;;;0.20;0.20;;;10.30;99.90;;;;;;5007275;28;20116;-67
2022/12/20 12:33:41;;;;;;;0.05;0.05;;;10.30;99.90;;;;;;5005368;28;20056;-66
2022/12/20 12:36:26;;;;;;;0.00;0.00;;;10.30;99.90;;;;;;5006250;28;20112;-66
2022/12/20 12:39:16;;;;;;;0.10;0.10;;;10.30;99.90;;;;;;4996268;28;20049;-67
2022/12/20 12:41:57;;;;;;;0.75;0.73;;;10.30;99.90;;;;;;5006505;28;20240;-66
2022/12/20 12:44:48;;;;;;;0.40;0.40;;;10.30;99.90;;;;;;5007039;28;20125;-67
2022/12/20 12:47:22;;;;;;;1.98;1.85;;;10.20;99.90;;;;;;5014659;28;20567;-66
2022/12/20 12:49:50;;;;;;;0.75;0.75;;;10.20;99.90;;;;;;5028645;28;20393;-66
2022/12/20 12:52:52;;;;;;;0.10;0.10;;;10.20;99.90;;;;;;5031187;28;20053;-67
2022/12/20 12:55:41;;;;;;;0.30;0.30;;;10.20;99.90;;;;;;5013554;28;20068;-66
2022/12/20 12:58:23;;;;;;;0.10;0.10;;;10.20;99.90;;;;;;5028978;28;20140;-67
2022/12/20 13:00:56;;;;;;;0.45;0.45;;;10.20;99.90;;;;;;5030566;28;20136;-67
2022/12/20 13:03:52;;;;;;;0.10;0.10;;;10.20;99.90;;;;;;5029681;28;20203;-67
2022/12/20 13:06:29;;;;;;;0.25;0.25;;;10.20;99.90;;;;;;5030168;28;20061;-67
2022/12/20 13:08:55;;;;;;;0.30;0.30;;;10.30;99.90;;;;;;5029509;28;20049;-67
2022/12/20 13:11:35;;;;;;;0.80;0.80;;;10.30;99.90;;;;;;5030765;28;20048;-67
2022/12/20 13:14:16;;;;;;;0.22;0.22;;;10.30;99.90;;;;;;5028593;28;20408;-67
2022/12/20 13:16:46;;;;;;;0.00;0.00;;;10.30;99.90;;;;;;5023884;28;20164;-66
2022/12/20 13:19:24;;;;;;;0.08;0.08;;;10.30;99.90;;;;;;5029913;28;20049;-66